createdAt,value
2017-08-29T00:00:01.496Z,27.6
2017-08-29T00:01:03.319Z,27.6
2017-08-29T00:02:05.448Z,27.6
2017-08-29T00:03:07.296Z,27.6
2017-08-29T00:04:09.430Z,27.6
2017-08-29T00:05:11.206Z,27.6
2017-08-29T00:06:13.370Z,27.6
2017-08-29T00:07:14.813Z,27.6
2017-08-29T00:08:16.608Z,27.5
2017-08-29T00:09:18.078Z,27.6
2017-08-29T00:10:20.207Z,27.6
2017-08-29T00:11:22.002Z,27.6
2017-08-29T00:12:24.132Z,27.6
2017-08-29T00:13:26.263Z,27.6
2017-08-29T00:14:28.415Z,27.6
2017-08-29T00:15:30.541Z,27.6
2017-08-29T00:16:32.340Z,27.6
2017-08-29T00:17:34.134Z,27.6
2017-08-29T00:18:36.266Z,27.5
2017-08-29T00:19:38.394Z,27.6
2017-08-29T00:20:39.855Z,27.5
2017-08-29T00:21:41.650Z,27.6
2017-08-29T00:22:43.448Z,27.5
2017-08-29T00:23:45.245Z,27.6
2017-08-29T00:24:47.040Z,27.6
2017-08-29T00:25:49.171Z,27.5
2017-08-29T00:26:50.965Z,27.5
2017-08-29T00:27:53.096Z,27.6
2017-08-29T00:28:54.893Z,27.5
2017-08-29T00:29:57.022Z,27.5
2017-08-29T00:30:59.152Z,27.6
2017-08-29T00:32:00.925Z,27.5
2017-08-29T00:33:02.721Z,27.6
2017-08-29T00:34:04.515Z,27.5
2017-08-29T00:35:06.311Z,27.5
2017-08-29T00:36:08.111Z,27.5
2017-08-29T00:37:09.207Z,27.6
2017-08-29T00:38:10.315Z,27.5
2017-08-29T00:39:12.112Z,27.5
2017-08-29T00:40:13.906Z,27.5
2017-08-29T00:41:15.741Z,27.5
2017-08-29T00:42:17.200Z,27.5
2017-08-29T00:43:18.969Z,27.6
2017-08-29T00:44:20.431Z,27.5
2017-08-29T00:45:21.893Z,27.5
2017-08-29T00:46:23.687Z,27.6
2017-08-29T00:47:25.815Z,27.5
2017-08-29T00:48:27.610Z,27.5
2017-08-29T00:49:29.072Z,27.5
2017-08-29T00:50:30.870Z,27.6
2017-08-29T00:51:32.665Z,27.5
2017-08-29T00:52:34.796Z,27.5
2017-08-29T00:53:36.257Z,27.5
2017-08-29T00:54:37.722Z,27.5
2017-08-29T00:55:39.527Z,27.5
2017-08-29T00:56:41.322Z,27.5
2017-08-29T00:57:43.457Z,27.6
2017-08-29T00:58:45.587Z,27.6
2017-08-29T00:59:47.023Z,27.5
2017-08-29T01:00:49.170Z,27.5
2017-08-29T01:01:50.943Z,27.5
2017-08-29T01:02:52.739Z,27.6
2017-08-29T01:03:54.869Z,27.4
2017-08-29T01:04:57.002Z,27.5
2017-08-29T01:05:58.795Z,27.5
2017-08-29T01:07:00.593Z,27.5
2017-08-29T01:08:02.055Z,27.5
2017-08-29T01:09:04.184Z,27.4
2017-08-29T01:10:06.315Z,27.5
2017-08-29T01:11:08.443Z,27.5
2017-08-29T01:12:09.904Z,27.5
2017-08-29T01:13:11.714Z,27.6
2017-08-29T01:14:13.514Z,27.6
2017-08-29T01:15:15.642Z,27.5
2017-08-29T01:16:17.775Z,27.6
2017-08-29T01:17:19.907Z,27.4
2017-08-29T01:18:21.702Z,27.5
2017-08-29T01:19:23.497Z,27.6
2017-08-29T01:20:24.936Z,27.5
2017-08-29T01:21:26.374Z,27.5
2017-08-29T01:22:28.173Z,27.4
2017-08-29T01:23:29.968Z,27.4
2017-08-29T01:24:31.075Z,27.5
2017-08-29T01:25:32.182Z,27.5
2017-08-29T01:26:34.314Z,27.5
2017-08-29T01:27:36.090Z,27.5
2017-08-29T01:28:37.861Z,27.5
2017-08-29T01:29:39.991Z,27.5
2017-08-29T01:30:41.764Z,27.5
2017-08-29T01:31:43.538Z,27.5
2017-08-29T01:32:45.340Z,27.5
2017-08-29T01:33:46.443Z,27.4
2017-08-29T01:34:48.573Z,27.4
2017-08-29T01:35:50.710Z,27.4
2017-08-29T01:36:52.479Z,27.4
2017-08-29T01:37:54.610Z,27.5
2017-08-29T01:38:56.385Z,27.4
2017-08-29T01:39:58.515Z,27.4
2017-08-29T01:41:00.646Z,27.5
2017-08-29T01:42:02.441Z,27.4
2017-08-29T01:43:03.904Z,27.4
2017-08-29T01:44:05.699Z,27.4
2017-08-29T01:45:07.494Z,27.5
2017-08-29T01:46:09.290Z,27.4
2017-08-29T01:47:11.438Z,27.5
2017-08-29T01:48:13.238Z,27.5
2017-08-29T01:49:14.715Z,27.5
2017-08-29T01:50:16.488Z,27.5
2017-08-29T01:51:18.282Z,27.4
2017-08-29T01:52:20.076Z,27.4
2017-08-29T01:53:22.207Z,27.5
2017-08-29T01:54:24.337Z,27.4
2017-08-29T01:55:25.777Z,27.5
2017-08-29T01:56:27.918Z,27.5
2017-08-29T01:57:30.049Z,27.5
2017-08-29T01:58:31.826Z,27.5
2017-08-29T01:59:33.600Z,27.5
2017-08-29T02:00:35.394Z,27.5
2017-08-29T02:01:37.524Z,27.5
2017-08-29T02:02:39.658Z,27.5
2017-08-29T02:03:41.475Z,27.4
2017-08-29T02:04:42.912Z,27.6
2017-08-29T02:05:44.709Z,27.5
2017-08-29T02:06:46.841Z,27.4
2017-08-29T02:07:48.971Z,27.4
2017-08-29T02:08:50.433Z,27.5
2017-08-29T02:09:52.564Z,27.4
2017-08-29T02:10:54.359Z,27.4
2017-08-29T02:11:56.489Z,27.5
2017-08-29T02:12:58.622Z,27.5
2017-08-29T02:14:00.753Z,27.5
2017-08-29T02:15:02.548Z,27.4
2017-08-29T02:16:04.340Z,27.5
2017-08-29T02:17:05.780Z,27.5
2017-08-29T02:18:07.554Z,27.4
2017-08-29T02:19:09.351Z,27.5
2017-08-29T02:20:11.149Z,27.5
2017-08-29T02:21:13.281Z,27.5
2017-08-29T02:22:15.078Z,27.4
2017-08-29T02:23:16.875Z,27.4
2017-08-29T02:24:18.314Z,27.5
2017-08-29T02:25:20.107Z,27.4
2017-08-29T02:26:22.238Z,27.4
2017-08-29T02:27:24.369Z,27.4
2017-08-29T02:28:25.834Z,27.6
2017-08-29T02:29:27.282Z,27.5
2017-08-29T02:30:29.410Z,27.3
2017-08-29T02:31:31.185Z,27.4
2017-08-29T02:32:33.314Z,27.4
2017-08-29T02:33:35.447Z,27.4
2017-08-29T02:34:36.552Z,27.5
2017-08-29T02:35:38.349Z,27.4
2017-08-29T02:36:40.481Z,27.4
2017-08-29T02:37:41.942Z,27.5
2017-08-29T02:38:44.075Z,27.4
2017-08-29T02:39:45.867Z,27.4
2017-08-29T02:40:47.997Z,27.3
2017-08-29T02:41:50.164Z,27.4
2017-08-29T02:42:52.280Z,27.4
2017-08-29T02:43:54.415Z,27.4
2017-08-29T02:44:55.874Z,27.4
2017-08-29T02:45:58.004Z,27.4
2017-08-29T02:46:59.798Z,27.5
2017-08-29T02:48:01.594Z,27.4
2017-08-29T02:49:03.743Z,27.4
2017-08-29T02:50:05.546Z,27.5
2017-08-29T02:51:07.673Z,27.5
2017-08-29T02:52:08.776Z,27.5
2017-08-29T02:53:10.915Z,27.4
2017-08-29T02:54:12.704Z,27.4
2017-08-29T02:55:14.479Z,27.4
2017-08-29T02:56:16.272Z,27.5
2017-08-29T02:57:18.065Z,27.4
2017-08-29T02:58:19.504Z,27.4
2017-08-29T02:59:21.278Z,27.4
2017-08-29T03:00:23.413Z,27.5
2017-08-29T03:01:24.853Z,27.4
2017-08-29T03:02:26.983Z,27.5
2017-08-29T03:03:28.777Z,27.4
2017-08-29T03:04:30.217Z,27.5
2017-08-29T03:05:31.676Z,27.5
2017-08-29T03:06:33.472Z,27.5
2017-08-29T03:07:35.282Z,27.5
2017-08-29T03:08:37.054Z,27.4
2017-08-29T03:09:38.850Z,27.5
2017-08-29T03:10:40.624Z,27.4
2017-08-29T03:11:42.084Z,27.4
2017-08-29T03:12:44.214Z,27.5
2017-08-29T03:13:46.345Z,27.4
2017-08-29T03:14:48.118Z,27.5
2017-08-29T03:15:49.913Z,27.5
2017-08-29T03:16:52.042Z,27.5
2017-08-29T03:17:54.173Z,27.5
2017-08-29T03:18:55.968Z,27.4
2017-08-29T03:19:57.763Z,27.5
2017-08-29T03:20:59.561Z,27.5
2017-08-29T03:22:01.026Z,27.5
2017-08-29T03:23:02.797Z,27.5
2017-08-29T03:24:04.239Z,27.4
2017-08-29T03:25:05.681Z,27.3
2017-08-29T03:26:07.473Z,27.4
2017-08-29T03:27:09.603Z,27.4
2017-08-29T03:28:11.398Z,27.5
2017-08-29T03:29:13.192Z,27.4
2017-08-29T03:30:15.324Z,27.4
2017-08-29T03:31:16.760Z,27.4
2017-08-29T03:32:18.896Z,27.4
2017-08-29T03:33:20.019Z,27.5
2017-08-29T03:34:22.147Z,27.5
2017-08-29T03:35:23.608Z,27.4
2017-08-29T03:36:25.740Z,27.4
2017-08-29T03:37:27.869Z,27.3
2017-08-29T03:38:29.662Z,27.4
2017-08-29T03:39:31.434Z,27.4
2017-08-29T03:40:33.229Z,27.4
2017-08-29T03:41:35.023Z,27.4
2017-08-29T03:42:37.167Z,27.4
2017-08-29T03:43:38.628Z,27.4
2017-08-29T03:44:40.757Z,27.4
2017-08-29T03:45:42.888Z,27.4
2017-08-29T03:46:43.993Z,27.4
2017-08-29T03:47:45.787Z,27.4
2017-08-29T03:48:47.582Z,27.4
2017-08-29T03:49:49.708Z,27.4
2017-08-29T03:50:51.844Z,27.4
2017-08-29T03:51:53.619Z,27.4
2017-08-29T03:52:55.058Z,27.4
2017-08-29T03:53:56.534Z,27.4
2017-08-29T03:54:58.334Z,27.3
2017-08-29T03:56:00.458Z,27.4
2017-08-29T03:57:01.917Z,27.4
2017-08-29T03:58:03.360Z,27.4
2017-08-29T03:59:05.159Z,27.3
2017-08-29T04:00:07.290Z,27.3
2017-08-29T04:01:08.726Z,27.4
2017-08-29T04:02:10.195Z,27.3
2017-08-29T04:03:12.328Z,27.4
2017-08-29T04:04:14.122Z,27.3
2017-08-29T04:05:15.918Z,27.4
2017-08-29T04:06:18.047Z,27.4
2017-08-29T04:07:19.487Z,27.3
2017-08-29T04:08:21.258Z,27.5
2017-08-29T04:09:22.704Z,27.4
2017-08-29T04:10:24.157Z,27.3
2017-08-29T04:11:25.606Z,27.4
2017-08-29T04:12:27.402Z,27.3
2017-08-29T04:13:29.530Z,27.4
2017-08-29T04:14:30.968Z,27.3
2017-08-29T04:15:32.744Z,27.3
2017-08-29T04:16:34.873Z,27.4
2017-08-29T04:17:36.332Z,27.4
2017-08-29T04:18:38.461Z,27.4
2017-08-29T04:19:40.237Z,27.3
2017-08-29T04:20:41.699Z,27.4
2017-08-29T04:21:43.474Z,27.4
2017-08-29T04:22:44.909Z,27.4
2017-08-29T04:23:46.369Z,27.4
2017-08-29T04:24:48.171Z,27.4
2017-08-29T04:25:50.304Z,27.3
2017-08-29T04:26:52.435Z,27.4
2017-08-29T04:27:54.232Z,27.4
2017-08-29T04:28:56.360Z,27.4
2017-08-29T04:29:58.490Z,27.4
2017-08-29T04:31:00.617Z,27.3
2017-08-29T04:32:02.415Z,27.3
2017-08-29T04:33:04.208Z,27.3
2017-08-29T04:34:06.342Z,27.4
2017-08-29T04:35:07.120Z,27.4
2017-08-29T04:36:08.557Z,27.3
2017-08-29T04:37:10.021Z,27.3
2017-08-29T04:38:11.809Z,27.3
2017-08-29T04:39:13.938Z,27.3
2017-08-29T04:40:15.742Z,27.3
2017-08-29T04:41:17.871Z,27.4
2017-08-29T04:42:19.332Z,27.3
2017-08-29T04:43:21.453Z,27.3
2017-08-29T04:44:23.252Z,27.4
2017-08-29T04:45:25.384Z,27.4
2017-08-29T04:46:26.493Z,27.4
2017-08-29T04:47:28.291Z,27.4
2017-08-29T04:48:30.088Z,27.4
2017-08-29T04:49:31.939Z,27.4
2017-08-29T04:50:34.066Z,27.4
2017-08-29T04:51:35.194Z,27.3
2017-08-29T04:52:36.668Z,27.4
2017-08-29T04:53:38.443Z,27.3
2017-08-29T04:54:40.243Z,27.4
2017-08-29T04:55:42.038Z,27.4
2017-08-29T04:56:43.814Z,27.4
2017-08-29T04:57:45.961Z,27.3
2017-08-29T04:58:47.423Z,27.3
2017-08-29T04:59:49.558Z,27.4
2017-08-29T05:00:51.687Z,27.4
2017-08-29T05:01:53.465Z,27.4
2017-08-29T05:02:55.262Z,27.4
2017-08-29T05:03:57.394Z,27.3
2017-08-29T05:04:59.523Z,27.3
2017-08-29T05:06:01.672Z,27.4
2017-08-29T05:07:03.465Z,27.4
2017-08-29T05:08:05.237Z,27.4
2017-08-29T05:09:07.368Z,27.4
2017-08-29T05:10:08.835Z,27.5
2017-08-29T05:11:09.603Z,27.4
2017-08-29T05:12:11.040Z,27.4
2017-08-29T05:13:12.835Z,27.4
2017-08-29T05:14:14.964Z,27.4
2017-08-29T05:15:17.094Z,27.4
2017-08-29T05:16:18.201Z,27.4
2017-08-29T05:17:19.307Z,27.4
2017-08-29T05:18:21.439Z,27.4
2017-08-29T05:19:22.880Z,27.4
2017-08-29T05:20:24.319Z,27.4
2017-08-29T05:21:25.761Z,27.3
2017-08-29T05:22:27.558Z,27.4
2017-08-29T05:23:28.328Z,27.5
2017-08-29T05:24:30.135Z,27.4
2017-08-29T05:25:31.919Z,27.4
2017-08-29T05:26:34.049Z,27.4
2017-08-29T05:27:36.188Z,27.4
2017-08-29T05:28:38.317Z,27.4
2017-08-29T05:29:40.449Z,27.4
2017-08-29T05:30:41.580Z,27.4
2017-08-29T05:31:42.688Z,27.4
2017-08-29T05:32:44.146Z,27.4
2017-08-29T05:33:45.946Z,27.4
2017-08-29T05:34:48.074Z,27.4
2017-08-29T05:35:49.536Z,27.4
2017-08-29T05:36:51.339Z,27.5
2017-08-29T05:37:52.778Z,27.4
2017-08-29T05:38:54.295Z,27.4
2017-08-29T05:39:55.424Z,27.4
2017-08-29T05:40:56.886Z,27.4
2017-08-29T05:41:58.684Z,27.4
2017-08-29T05:43:00.477Z,27.4
2017-08-29T05:44:01.917Z,27.4
2017-08-29T05:45:03.714Z,27.5
2017-08-29T05:46:05.508Z,27.5
2017-08-29T05:47:06.976Z,27.4
2017-08-29T05:48:08.748Z,27.4
2017-08-29T05:49:10.190Z,27.4
2017-08-29T05:50:12.321Z,27.5
2017-08-29T05:51:13.785Z,27.5
2017-08-29T05:52:15.221Z,27.4
2017-08-29T05:53:16.668Z,27.5
2017-08-29T05:54:18.798Z,27.4
2017-08-29T05:55:20.240Z,27.5
2017-08-29T05:56:22.036Z,27.5
2017-08-29T05:57:23.832Z,27.5
2017-08-29T05:58:25.627Z,27.5
2017-08-29T05:59:27.758Z,27.4
2017-08-29T06:00:29.534Z,27.4
2017-08-29T06:01:31.328Z,27.5
2017-08-29T06:02:33.126Z,27.5
2017-08-29T06:03:35.260Z,27.4
2017-08-29T06:04:36.716Z,27.4
2017-08-29T06:05:38.173Z,27.5
2017-08-29T06:06:39.969Z,27.4
2017-08-29T06:07:41.741Z,27.5
2017-08-29T06:08:43.541Z,27.4
2017-08-29T06:09:45.671Z,27.5
2017-08-29T06:10:47.470Z,27.5
2017-08-29T06:11:49.596Z,27.4
2017-08-29T06:12:51.039Z,27.4
2017-08-29T06:13:53.167Z,27.4
2017-08-29T06:14:54.965Z,27.5
2017-08-29T06:15:56.773Z,27.4
2017-08-29T06:16:58.202Z,27.5
2017-08-29T06:17:59.977Z,27.5
2017-08-29T06:19:02.110Z,27.4
2017-08-29T06:20:04.239Z,27.5
2017-08-29T06:21:06.018Z,27.5
2017-08-29T06:22:07.812Z,27.4
2017-08-29T06:23:09.941Z,27.4
2017-08-29T06:24:11.388Z,27.4
2017-08-29T06:25:13.515Z,27.5
2017-08-29T06:26:15.309Z,27.5
2017-08-29T06:27:17.440Z,27.4
2017-08-29T06:28:19.235Z,27.3
2017-08-29T06:29:21.375Z,27.4
2017-08-29T06:30:22.810Z,27.4
2017-08-29T06:31:24.277Z,27.4
2017-08-29T06:32:26.053Z,27.5
2017-08-29T06:33:27.843Z,27.5
2017-08-29T06:34:29.973Z,27.5
2017-08-29T06:35:31.769Z,27.5
2017-08-29T06:36:33.568Z,27.5
2017-08-29T06:37:35.417Z,27.4
2017-08-29T06:38:37.215Z,27.4
2017-08-29T06:39:39.348Z,27.4
2017-08-29T06:40:41.479Z,27.5
2017-08-29T06:41:43.256Z,27.5
2017-08-29T06:42:45.057Z,27.6
2017-08-29T06:43:47.191Z,27.5
2017-08-29T06:44:48.993Z,27.5
2017-08-29T06:45:51.126Z,27.6
2017-08-29T06:46:53.270Z,27.5
2017-08-29T06:47:55.107Z,27.5
2017-08-29T06:48:57.241Z,27.5
2017-08-29T06:49:59.038Z,27.6
2017-08-29T06:51:00.551Z,27.6
2017-08-29T06:52:02.345Z,27.6
2017-08-29T06:53:04.571Z,27.6
2017-08-29T06:54:06.703Z,27.6
2017-08-29T06:55:08.841Z,27.7
2017-08-29T06:56:10.968Z,27.7
2017-08-29T06:57:12.765Z,27.7
2017-08-29T06:58:14.211Z,27.7
2017-08-29T06:59:16.011Z,27.7
2017-08-29T07:00:18.144Z,27.6
2017-08-29T07:01:19.937Z,27.7
2017-08-29T07:02:21.380Z,27.7
2017-08-29T07:03:22.819Z,27.7
2017-08-29T07:04:23.997Z,27.7
2017-08-29T07:05:25.516Z,27.7
2017-08-29T07:06:26.329Z,27.7
2017-08-29T07:07:28.128Z,27.7
2017-08-29T07:08:29.597Z,27.6
2017-08-29T07:09:30.723Z,27.7
2017-08-29T07:10:32.864Z,27.7
2017-08-29T07:11:34.338Z,27.7
2017-08-29T07:12:35.780Z,27.7
2017-08-29T07:13:37.564Z,27.7
2017-08-29T07:14:39.006Z,27.7
2017-08-29T07:15:40.788Z,27.7
2017-08-29T07:16:42.924Z,27.7
2017-08-29T07:17:44.721Z,27.6
2017-08-29T07:18:46.520Z,27.7
2017-08-29T07:19:47.959Z,27.7
2017-08-29T07:20:49.754Z,27.7
2017-08-29T07:21:51.202Z,27.8
2017-08-29T07:22:52.982Z,27.7
2017-08-29T07:23:54.446Z,27.6
2017-08-29T07:24:56.244Z,27.7
2017-08-29T07:25:58.042Z,27.8
2017-08-29T07:27:00.190Z,27.8
2017-08-29T07:28:01.654Z,27.7
2017-08-29T07:29:03.432Z,27.7
2017-08-29T07:30:05.561Z,27.7
2017-08-29T07:31:07.010Z,27.7
2017-08-29T07:32:08.450Z,27.7
2017-08-29T07:33:10.584Z,27.7
2017-08-29T07:34:12.721Z,27.7
2017-08-29T07:35:14.500Z,27.7
2017-08-29T07:36:16.634Z,27.8
2017-08-29T07:37:18.788Z,27.8
2017-08-29T07:38:20.586Z,27.8
2017-08-29T07:39:22.381Z,27.8
2017-08-29T07:40:24.517Z,27.8
2017-08-29T07:41:26.665Z,27.8
2017-08-29T07:42:28.446Z,27.8
2017-08-29T07:43:30.579Z,27.8
2017-08-29T07:44:32.023Z,27.7
2017-08-29T07:45:34.153Z,27.8
2017-08-29T07:46:35.952Z,27.8
2017-08-29T07:47:37.398Z,27.8
2017-08-29T07:48:38.869Z,27.8
2017-08-29T07:49:40.667Z,27.9
2017-08-29T07:50:42.122Z,27.8
2017-08-29T07:51:44.257Z,27.8
2017-08-29T07:52:46.396Z,27.8
2017-08-29T07:53:48.186Z,27.8
2017-08-29T07:54:49.654Z,27.8
2017-08-29T07:55:51.442Z,27.9
2017-08-29T07:56:52.915Z,27.8
2017-08-29T07:57:55.050Z,27.8
2017-08-29T07:58:56.516Z,27.8
2017-08-29T07:59:58.656Z,27.8
2017-08-29T08:01:00.461Z,27.8
2017-08-29T08:02:01.592Z,27.9
2017-08-29T08:03:03.404Z,27.8
2017-08-29T08:04:05.206Z,27.9
2017-08-29T08:05:06.987Z,27.8
2017-08-29T08:06:08.812Z,27.9
2017-08-29T08:07:10.279Z,27.9
2017-08-29T08:08:11.744Z,27.8
2017-08-29T08:09:13.523Z,27.9
2017-08-29T08:10:14.992Z,27.8
2017-08-29T08:11:16.793Z,27.9
2017-08-29T08:12:18.928Z,27.9
2017-08-29T08:13:20.708Z,27.9
2017-08-29T08:14:22.148Z,27.8
2017-08-29T08:15:23.593Z,27.9
2017-08-29T08:16:25.398Z,27.9
2017-08-29T08:17:26.843Z,27.9
2017-08-29T08:18:28.284Z,27.9
2017-08-29T08:19:30.064Z,27.9
2017-08-29T08:20:31.874Z,27.8
2017-08-29T08:21:33.653Z,27.9
2017-08-29T08:22:35.431Z,27.9
2017-08-29T08:23:37.212Z,27.9
2017-08-29T08:24:39.395Z,27.9
2017-08-29T08:25:41.528Z,27.9
2017-08-29T08:26:43.308Z,27.9
2017-08-29T08:27:45.453Z,27.9
2017-08-29T08:28:47.255Z,27.9
2017-08-29T08:29:48.699Z,27.9
2017-08-29T08:30:50.152Z,27.9
2017-08-29T08:31:52.294Z,27.9
2017-08-29T08:32:53.402Z,27.9
2017-08-29T08:33:54.871Z,27.9
2017-08-29T08:34:57.007Z,27.9
2017-08-29T08:35:58.784Z,27.9
2017-08-29T08:37:00.254Z,27.9
2017-08-29T08:38:02.388Z,27.9
2017-08-29T08:39:04.190Z,27.9
2017-08-29T08:40:05.637Z,27.9
2017-08-29T08:41:07.420Z,28
2017-08-29T08:42:09.557Z,27.9
2017-08-29T08:43:11.357Z,28
2017-08-29T08:44:13.526Z,28
2017-08-29T08:45:15.038Z,27.9
2017-08-29T08:46:16.815Z,27.9
2017-08-29T08:47:18.612Z,28
2017-08-29T08:48:20.398Z,27.9
2017-08-29T08:49:21.842Z,28
2017-08-29T08:50:23.642Z,28
2017-08-29T08:51:24.756Z,28
2017-08-29T08:52:26.533Z,28
2017-08-29T08:53:28.667Z,28
2017-08-29T08:54:30.492Z,28
2017-08-29T08:55:31.957Z,28
2017-08-29T08:56:33.396Z,28
2017-08-29T08:57:35.545Z,28
2017-08-29T08:58:37.353Z,27.9
2017-08-29T08:59:39.480Z,28
2017-08-29T09:00:41.277Z,28
2017-08-29T09:01:42.734Z,28
2017-08-29T09:02:44.181Z,28.1
2017-08-29T09:03:45.984Z,28
2017-08-29T09:04:47.782Z,28
2017-08-29T09:05:49.232Z,28
2017-08-29T09:06:51.364Z,28.1
2017-08-29T09:07:52.834Z,28
2017-08-29T09:08:54.964Z,28
2017-08-29T09:09:56.763Z,28
2017-08-29T09:10:58.228Z,28
2017-08-29T09:11:59.695Z,28
2017-08-29T09:13:01.169Z,28.1
2017-08-29T09:14:02.305Z,28.1
2017-08-29T09:15:04.096Z,28.1
2017-08-29T09:16:05.556Z,28.1
2017-08-29T09:17:07.374Z,28.1
2017-08-29T09:18:09.158Z,28.1
2017-08-29T09:19:10.623Z,28.1
2017-08-29T09:20:12.422Z,28.1
2017-08-29T09:21:14.558Z,28.1
2017-08-29T09:22:16.023Z,28.1
2017-08-29T09:23:18.162Z,28.1
2017-08-29T09:24:19.967Z,28.2
2017-08-29T09:25:22.111Z,28.1
2017-08-29T09:26:24.341Z,28.1
2017-08-29T09:27:25.468Z,28.1
2017-08-29T09:28:26.921Z,28.1
2017-08-29T09:29:28.384Z,28.1
2017-08-29T09:30:30.184Z,28.1
2017-08-29T09:31:31.294Z,28.1
2017-08-29T09:32:32.740Z,28.1
2017-08-29T09:33:34.205Z,28.2
2017-08-29T09:34:36.339Z,28.1
2017-08-29T09:35:38.145Z,28.1
2017-08-29T09:36:40.277Z,28.1
2017-08-29T09:37:42.076Z,28.1
2017-08-29T09:38:43.968Z,28.1
2017-08-29T09:39:46.101Z,28.1
2017-08-29T09:40:48.234Z,28.1
2017-08-29T09:41:49.676Z,28.1
2017-08-29T09:42:51.815Z,28.1
2017-08-29T09:43:53.630Z,28.1
2017-08-29T09:44:55.759Z,28.1
2017-08-29T09:45:57.226Z,28.2
2017-08-29T09:46:58.692Z,28.2
2017-08-29T09:48:00.494Z,28.2
2017-08-29T09:49:01.950Z,28.2
2017-08-29T09:50:03.749Z,28.1
2017-08-29T09:51:05.544Z,28.1
2017-08-29T09:52:07.345Z,28.1
2017-08-29T09:53:08.794Z,28.2
2017-08-29T09:54:10.238Z,28.2
2017-08-29T09:55:11.701Z,28.1
2017-08-29T09:56:13.505Z,28.2
2017-08-29T09:57:15.300Z,28.2
2017-08-29T09:58:17.442Z,28.3
2017-08-29T09:59:18.886Z,28.1
2017-08-29T10:00:20.688Z,28.2
2017-08-29T10:01:21.466Z,28.3
2017-08-29T10:02:23.630Z,28.2
2017-08-29T10:03:24.740Z,28.2
2017-08-29T10:04:26.873Z,28.2
2017-08-29T10:05:29.009Z,28.3
2017-08-29T10:06:30.849Z,28.2
2017-08-29T10:07:32.979Z,28.3
2017-08-29T10:08:34.811Z,28.2
2017-08-29T10:09:36.620Z,28.2
2017-08-29T10:10:38.420Z,28.2
2017-08-29T10:11:39.864Z,28.2
2017-08-29T10:12:41.705Z,28.3
2017-08-29T10:13:43.507Z,28.3
2017-08-29T10:14:45.281Z,28.2
2017-08-29T10:15:46.732Z,28.3
2017-08-29T10:16:48.860Z,28.3
2017-08-29T10:17:50.992Z,28.3
2017-08-29T10:18:53.131Z,28.2
2017-08-29T10:19:54.596Z,28.2
2017-08-29T10:20:56.399Z,28.2
2017-08-29T10:21:58.538Z,28.3
2017-08-29T10:23:00.707Z,28.2
2017-08-29T10:24:02.181Z,28.3
2017-08-29T10:25:04.317Z,28.3
2017-08-29T10:26:06.120Z,28.3
2017-08-29T10:27:07.618Z,28.3
2017-08-29T10:28:09.757Z,28.3
2017-08-29T10:29:11.561Z,28.3
2017-08-29T10:30:13.363Z,28.3
2017-08-29T10:31:15.162Z,28.4
2017-08-29T10:32:16.656Z,28.3
2017-08-29T10:33:18.439Z,28.4
2017-08-29T10:34:19.888Z,28.3
2017-08-29T10:35:22.038Z,28.3
2017-08-29T10:36:24.171Z,28.4
2017-08-29T10:37:26.306Z,28.4
2017-08-29T10:38:28.448Z,28.4
2017-08-29T10:39:30.591Z,28.3
2017-08-29T10:40:32.053Z,28.4
2017-08-29T10:41:34.197Z,28.4
2017-08-29T10:42:35.994Z,28.4
2017-08-29T10:43:37.769Z,28.4
2017-08-29T10:44:39.902Z,28.5
2017-08-29T10:45:41.703Z,28.3
2017-08-29T10:46:43.840Z,28.4
2017-08-29T10:47:45.281Z,28.4
2017-08-29T10:48:46.754Z,28.4
2017-08-29T10:49:48.908Z,28.4
2017-08-29T10:50:51.041Z,28.3
2017-08-29T10:51:53.174Z,28.3
2017-08-29T10:52:54.972Z,28.3
2017-08-29T10:53:56.777Z,28.3
2017-08-29T10:54:58.635Z,28.4
2017-08-29T10:56:00.766Z,28.3
2017-08-29T10:57:02.900Z,28.3
2017-08-29T10:58:05.035Z,28.4
2017-08-29T10:59:06.504Z,28.4
2017-08-29T11:00:08.308Z,28.4
2017-08-29T11:01:09.757Z,28.4
2017-08-29T11:02:11.560Z,28.4
2017-08-29T11:03:13.337Z,28.4
2017-08-29T11:04:14.804Z,28.4
2017-08-29T11:05:16.616Z,28.4
2017-08-29T11:06:17.735Z,28.4
2017-08-29T11:07:19.509Z,28.4
2017-08-29T11:08:21.309Z,28.3
2017-08-29T11:09:22.753Z,28.4
2017-08-29T11:10:24.886Z,28.3
2017-08-29T11:11:26.331Z,28.4
2017-08-29T11:12:28.113Z,28.4
2017-08-29T11:13:29.896Z,28.4
2017-08-29T11:14:31.364Z,28.4
2017-08-29T11:15:33.163Z,28.4
2017-08-29T11:16:34.604Z,28.4
2017-08-29T11:17:36.065Z,28.4
2017-08-29T11:18:37.864Z,28.4
2017-08-29T11:19:39.996Z,28.4
2017-08-29T11:20:41.440Z,28.4
2017-08-29T11:21:43.573Z,28.4
2017-08-29T11:22:45.704Z,28.4
2017-08-29T11:23:47.506Z,28.4
2017-08-29T11:24:49.285Z,28.4
2017-08-29T11:25:51.081Z,28.4
2017-08-29T11:26:52.880Z,28.5
2017-08-29T11:27:55.013Z,28.5
2017-08-29T11:28:57.152Z,28.5
2017-08-29T11:29:58.594Z,28.5
2017-08-29T11:31:00.400Z,28.4
2017-08-29T11:32:02.534Z,28.5
2017-08-29T11:33:04.331Z,28.5
2017-08-29T11:34:05.774Z,28.5
2017-08-29T11:35:07.907Z,28.5
2017-08-29T11:36:10.041Z,28.5
2017-08-29T11:37:11.815Z,28.5
2017-08-29T11:38:13.279Z,28.5
2017-08-29T11:39:14.721Z,28.5
2017-08-29T11:40:16.496Z,28.5
2017-08-29T11:41:18.300Z,28.5
2017-08-29T11:42:20.430Z,28.5
2017-08-29T11:43:22.227Z,28.5
2017-08-29T11:44:24.078Z,28.5
2017-08-29T11:45:26.208Z,28.5
2017-08-29T11:46:28.005Z,28.5
2017-08-29T11:47:30.144Z,28.5
2017-08-29T11:48:31.940Z,28.6
2017-08-29T11:49:33.804Z,28.6
2017-08-29T11:50:35.936Z,28.5
2017-08-29T11:51:37.716Z,28.6
2017-08-29T11:52:39.515Z,28.5
2017-08-29T11:53:41.650Z,28.6
2017-08-29T11:54:43.460Z,28.6
2017-08-29T11:55:44.902Z,28.6
2017-08-29T11:56:46.703Z,28.6
2017-08-29T11:57:48.834Z,28.5
2017-08-29T11:58:50.967Z,28.5
2017-08-29T11:59:52.743Z,28.5
2017-08-29T12:00:54.872Z,28.6
2017-08-29T12:01:57.003Z,28.5
2017-08-29T12:02:58.783Z,28.6
2017-08-29T12:04:00.584Z,28.6
2017-08-29T12:05:02.385Z,28.6
2017-08-29T12:06:04.155Z,28.5
2017-08-29T12:07:05.931Z,28.6
2017-08-29T12:08:08.067Z,28.6
2017-08-29T12:09:09.524Z,28.6
2017-08-29T12:10:10.989Z,28.7
2017-08-29T12:11:13.124Z,28.6
2017-08-29T12:12:14.585Z,28.6
2017-08-29T12:13:16.390Z,28.6
2017-08-29T12:14:18.171Z,28.6
2017-08-29T12:15:19.616Z,28.6
2017-08-29T12:16:21.411Z,28.6
2017-08-29T12:17:23.208Z,28.6
2017-08-29T12:18:25.010Z,28.6
2017-08-29T12:19:27.141Z,28.6
2017-08-29T12:20:28.582Z,28.6
2017-08-29T12:21:30.382Z,28.6
2017-08-29T12:22:32.179Z,28.7
2017-08-29T12:23:34.310Z,28.6
2017-08-29T12:24:36.443Z,28.6
2017-08-29T12:25:38.241Z,28.6
2017-08-29T12:26:40.043Z,28.6
2017-08-29T12:27:41.504Z,28.6
2017-08-29T12:28:43.297Z,28.7
2017-08-29T12:29:45.095Z,28.6
2017-08-29T12:30:46.873Z,28.6
2017-08-29T12:31:48.675Z,28.6
2017-08-29T12:32:50.803Z,28.6
2017-08-29T12:33:52.603Z,28.6
2017-08-29T12:34:54.736Z,28.6
2017-08-29T12:35:56.867Z,28.6
2017-08-29T12:36:58.645Z,28.6
2017-08-29T12:38:00.780Z,28.6
2017-08-29T12:39:02.583Z,28.6
2017-08-29T12:40:03.353Z,28.6
2017-08-29T12:41:05.153Z,28.6
2017-08-29T12:42:07.285Z,28.6
2017-08-29T12:43:09.417Z,28.7
2017-08-29T12:44:11.218Z,28.6
2017-08-29T12:45:13.011Z,28.6
2017-08-29T12:46:15.145Z,28.6
2017-08-29T12:47:16.949Z,28.6
2017-08-29T12:48:18.722Z,28.6
2017-08-29T12:49:20.187Z,28.6
2017-08-29T12:50:21.985Z,28.6
2017-08-29T12:51:23.761Z,28.6
2017-08-29T12:52:25.561Z,28.6
2017-08-29T12:53:27.361Z,28.6
2017-08-29T12:54:29.165Z,28.6
2017-08-29T12:55:31.297Z,28.6
2017-08-29T12:56:33.075Z,28.7
2017-08-29T12:57:34.870Z,28.6
2017-08-29T12:58:36.669Z,28.7
2017-08-29T12:59:38.801Z,28.7
2017-08-29T13:00:40.601Z,28.7
2017-08-29T13:01:42.400Z,28.8
2017-08-29T13:02:44.199Z,28.7
2017-08-29T13:03:46.333Z,28.7
2017-08-29T13:04:48.130Z,28.7
2017-08-29T13:05:50.260Z,28.8
2017-08-29T13:06:52.396Z,28.7
2017-08-29T13:07:54.171Z,28.7
2017-08-29T13:08:56.306Z,28.7
2017-08-29T13:09:58.460Z,28.8
2017-08-29T13:11:00.598Z,28.7
2017-08-29T13:12:02.038Z,28.7
2017-08-29T13:13:04.168Z,28.7
2017-08-29T13:14:05.943Z,28.6
2017-08-29T13:15:07.720Z,28.8
2017-08-29T13:16:09.853Z,28.8
2017-08-29T13:17:11.987Z,28.8
2017-08-29T13:18:13.763Z,28.7
2017-08-29T13:19:15.901Z,28.8
2017-08-29T13:20:18.036Z,28.6
2017-08-29T13:21:19.144Z,28.8
2017-08-29T13:22:20.651Z,28.8
2017-08-29T13:23:22.453Z,28.8
2017-08-29T13:24:24.590Z,28.7
2017-08-29T13:25:26.728Z,28.7
2017-08-29T13:26:28.851Z,28.8
2017-08-29T13:27:30.987Z,28.8
2017-08-29T13:28:32.787Z,28.8
2017-08-29T13:29:33.901Z,28.8
2017-08-29T13:30:35.698Z,28.8
2017-08-29T13:31:37.477Z,28.7
2017-08-29T13:32:39.607Z,28.7
2017-08-29T13:33:41.744Z,28.8
2017-08-29T13:34:42.854Z,28.8
2017-08-29T13:35:44.647Z,28.8
2017-08-29T13:36:46.781Z,28.8
2017-08-29T13:37:48.564Z,28.8
2017-08-29T13:38:50.741Z,28.8
2017-08-29T13:39:52.519Z,28.7
2017-08-29T13:40:54.659Z,28.8
2017-08-29T13:41:56.458Z,28.7
2017-08-29T13:42:58.591Z,28.8
2017-08-29T13:44:00.371Z,28.7